Kanavis, Iran
Current Conditions -  °F | °C
As of 8:00 PM on Monday 22 Dec 2014 (Local Time) from OIMM Reporting Station
Overcast Overcast  
Wind Chill: 43°   Ceiling: 2000
Heat Index: 43°   Visibility: 4mi
Dew Point: 36°   Wind: 0mph
Humidity: 76%   Direction: NA
Pressure: 30"   Gusts: NA
Location:  36.27°N, 59.89°E
Report Text: OIMM 221600Z 00000KT 6000 OVC020 06/02 Q1016 A3001
Loading
Personal Weather Stations






























Interactive Weather Map New forecast layout! Learn more

10-Day Weather Forecast

Advertisements
Track Severe Weather on mobile